sensor_id;sensor_type;location;lat;lon;timestamp;P1;durP1;ratioP1;P2;durP2;ratioP2
9906;SDS011;4992;51.628;6.664;2023-06-26T00:00:49;7.82;;;7.07;;
9906;SDS011;4992;51.628;6.664;2023-06-26T00:03:15;7.50;;;6.80;;
9906;SDS011;4992;51.628;6.664;2023-06-26T00:05:41;7.15;;;6.40;;
9906;SDS011;4992;51.628;6.664;2023-06-26T00:08:07;8.32;;;7.53;;
9906;SDS011;4992;51.628;6.664;2023-06-26T00:10:34;7.40;;;6.80;;
9906;SDS011;4992;51.628;6.664;2023-06-26T00:13:00;7.65;;;6.95;;
9906;SDS011;4992;51.628;6.664;2023-06-26T00:15:27;7.32;;;6.60;;
9906;SDS011;4992;51.628;6.664;2023-06-26T00:17:56;7.72;;;7.03;;
9906;SDS011;4992;51.628;6.664;2023-06-26T00:20:22;8.38;;;6.80;;
9906;SDS011;4992;51.628;6.664;2023-06-26T00:22:48;7.82;;;7.07;;
9906;SDS011;4992;51.628;6.664;2023-06-26T00:25:15;8.02;;;7.00;;
9906;SDS011;4992;51.628;6.664;2023-06-26T00:27:41;7.43;;;6.82;;
9906;SDS011;4992;51.628;6.664;2023-06-26T00:30:07;8.02;;;7.05;;
9906;SDS011;4992;51.628;6.664;2023-06-26T00:32:33;7.63;;;7.03;;
9906;SDS011;4992;51.628;6.664;2023-06-26T00:34:59;8.02;;;7.05;;
9906;SDS011;4992;51.628;6.664;2023-06-26T00:37:25;7.38;;;6.57;;
9906;SDS011;4992;51.628;6.664;2023-06-26T00:39:51;8.38;;;6.68;;
9906;SDS011;4992;51.628;6.664;2023-06-26T00:42:17;7.53;;;6.93;;
9906;SDS011;4992;51.628;6.664;2023-06-26T00:44:43;6.90;;;6.20;;
9906;SDS011;4992;51.628;6.664;2023-06-26T00:47:10;7.78;;;7.00;;
9906;SDS011;4992;51.628;6.664;2023-06-26T00:49:37;7.88;;;7.13;;
9906;SDS011;4992;51.628;6.664;2023-06-26T00:52:03;6.80;;;6.10;;
9906;SDS011;4992;51.628;6.664;2023-06-26T00:54:29;7.75;;;6.53;;
9906;SDS011;4992;51.628;6.664;2023-06-26T00:56:55;7.85;;;6.63;;
9906;SDS011;4992;51.628;6.664;2023-06-26T00:59:21;7.10;;;6.45;;
9906;SDS011;4992;51.628;6.664;2023-06-26T01:01:47;7.18;;;6.47;;
9906;SDS011;4992;51.628;6.664;2023-06-26T01:04:13;7.60;;;6.90;;
9906;SDS011;4992;51.628;6.664;2023-06-26T01:06:42;7.65;;;6.90;;
9906;SDS011;4992;51.628;6.664;2023-06-26T01:09:13;7.57;;;6.70;;
9906;SDS011;4992;51.628;6.664;2023-06-26T01:11:39;8.05;;;6.90;;
9906;SDS011;4992;51.628;6.664;2023-06-26T01:14:05;7.88;;;7.10;;
9906;SDS011;4992;51.628;6.664;2023-06-26T01:16:31;8.18;;;7.38;;
9906;SDS011;4992;51.628;6.664;2023-06-26T01:18:57;7.47;;;6.70;;
9906;SDS011;4992;51.628;6.664;2023-06-26T01:21:23;8.27;;;7.45;;
9906;SDS011;4992;51.628;6.664;2023-06-26T01:26:29;9.73;;;7.25;;
9906;SDS011;4992;51.628;6.664;2023-06-26T01:28:57;7.45;;;6.75;;
9906;SDS011;4992;51.628;6.664;2023-06-26T01:31:24;7.75;;;7.05;;
9906;SDS011;4992;51.628;6.664;2023-06-26T01:33:50;9.32;;;6.95;;
9906;SDS011;4992;51.628;6.664;2023-06-26T01:36:16;6.88;;;6.28;;
9906;SDS011;4992;51.628;6.664;2023-06-26T01:38:42;8.45;;;6.88;;
9906;SDS011;4992;51.628;6.664;2023-06-26T01:41:08;7.70;;;7.00;;
9906;SDS011;4992;51.628;6.664;2023-06-26T01:46:06;8.07;;;7.10;;
9906;SDS011;4992;51.628;6.664;2023-06-26T01:48:39;8.73;;;7.82;;
9906;SDS011;4992;51.628;6.664;2023-06-26T01:51:07;11.02;;;7.30;;
9906;SDS011;4992;51.628;6.664;2023-06-26T01:53:35;8.43;;;7.47;;
9906;SDS011;4992;51.628;6.664;2023-06-26T01:56:06;7.75;;;7.05;;
9906;SDS011;4992;51.628;6.664;2023-06-26T01:58:32;8.15;;;7.20;;
9906;SDS011;4992;51.628;6.664;2023-06-26T02:00:59;10.02;;;7.35;;
9906;SDS011;4992;51.628;6.664;2023-06-26T02:03:25;8.02;;;7.22;;
9906;SDS011;4992;51.628;6.664;2023-06-26T02:05:51;10.70;;;7.10;;
9906;SDS011;4992;51.628;6.664;2023-06-26T02:08:17;8.32;;;7.45;;
9906;SDS011;4992;51.628;6.664;2023-06-26T02:10:43;9.93;;;6.95;;
9906;SDS011;4992;51.628;6.664;2023-06-26T02:13:09;7.57;;;6.80;;
9906;SDS011;4992;51.628;6.664;2023-06-26T02:15:35;7.18;;;6.55;;
9906;SDS011;4992;51.628;6.664;2023-06-26T02:18:01;8.48;;;7.60;;
9906;SDS011;4992;51.628;6.664;2023-06-26T02:20:27;8.35;;;7.32;;
9906;SDS011;4992;51.628;6.664;2023-06-26T02:22:53;9.65;;;7.28;;
9906;SDS011;4992;51.628;6.664;2023-06-26T02:25:19;7.32;;;6.63;;
9906;SDS011;4992;51.628;6.664;2023-06-26T02:27:45;7.53;;;6.82;;
9906;SDS011;4992;51.628;6.664;2023-06-26T02:30:10;9.95;;;7.50;;
9906;SDS011;4992;51.628;6.664;2023-06-26T02:32:36;7.68;;;6.93;;
9906;SDS011;4992;51.628;6.664;2023-06-26T02:35:02;8.45;;;7.65;;
9906;SDS011;4992;51.628;6.664;2023-06-26T02:37:29;8.48;;;7.57;;
9906;SDS011;4992;51.628;6.664;2023-06-26T02:39:55;7.82;;;7.10;;
9906;SDS011;4992;51.628;6.664;2023-06-26T02:42:21;7.57;;;6.80;;
9906;SDS011;4992;51.628;6.664;2023-06-26T02:44:47;7.70;;;7.00;;
9906;SDS011;4992;51.628;6.664;2023-06-26T02:47:13;7.53;;;6.82;;
9906;SDS011;4992;51.628;6.664;2023-06-26T02:49:38;7.75;;;6.97;;
9906;SDS011;4992;51.628;6.664;2023-06-26T02:52:04;7.63;;;6.93;;
9906;SDS011;4992;51.628;6.664;2023-06-26T02:54:30;7.70;;;6.90;;
9906;SDS011;4992;51.628;6.664;2023-06-26T02:56:57;8.20;;;6.40;;
9906;SDS011;4992;51.628;6.664;2023-06-26T02:59:24;7.20;;;6.47;;
9906;SDS011;4992;51.628;6.664;2023-06-26T03:01:50;6.90;;;6.30;;
9906;SDS011;4992;51.628;6.664;2023-06-26T03:04:16;7.93;;;7.13;;
9906;SDS011;4992;51.628;6.664;2023-06-26T03:06:42;7.90;;;7.20;;
9906;SDS011;4992;51.628;6.664;2023-06-26T03:09:09;8.07;;;6.90;;
9906;SDS011;4992;51.628;6.664;2023-06-26T03:11:34;9.57;;;7.53;;
9906;SDS011;4992;51.628;6.664;2023-06-26T03:14:00;8.75;;;7.25;;
9906;SDS011;4992;51.628;6.664;2023-06-26T03:16:26;8.07;;;7.25;;
9906;SDS011;4992;51.628;6.664;2023-06-26T03:18:52;7.90;;;7.10;;
9906;SDS011;4992;51.628;6.664;2023-06-26T03:21:18;7.97;;;7.20;;
9906;SDS011;4992;51.628;6.664;2023-06-26T03:23:44;8.18;;;7.38;;
9906;SDS011;4992;51.628;6.664;2023-06-26T03:26:10;10.60;;;7.22;;
9906;SDS011;4992;51.628;6.664;2023-06-26T03:28:39;9.05;;;7.35;;
9906;SDS011;4992;51.628;6.664;2023-06-26T03:31:05;8.75;;;6.68;;
9906;SDS011;4992;51.628;6.664;2023-06-26T03:33:31;9.85;;;8.07;;
9906;SDS011;4992;51.628;6.664;2023-06-26T03:35:57;8.20;;;7.30;;
9906;SDS011;4992;51.628;6.664;2023-06-26T03:38:24;7.53;;;6.82;;
9906;SDS011;4992;51.628;6.664;2023-06-26T03:40:51;7.25;;;6.55;;
9906;SDS011;4992;51.628;6.664;2023-06-26T03:43:17;8.68;;;7.88;;
9906;SDS011;4992;51.628;6.664;2023-06-26T03:45:43;8.38;;;7.68;;
9906;SDS011;4992;51.628;6.664;2023-06-26T03:48:09;10.63;;;8.20;;
9906;SDS011;4992;51.628;6.664;2023-06-26T03:50:35;10.48;;;9.07;;
9906;SDS011;4992;51.628;6.664;2023-06-26T03:53:01;9.25;;;8.35;;
9906;SDS011;4992;51.628;6.664;2023-06-26T03:55:27;8.43;;;7.63;;
9906;SDS011;4992;51.628;6.664;2023-06-26T03:57:53;8.63;;;7.78;;
9906;SDS011;4992;51.628;6.664;2023-06-26T04:00:18;10.00;;;9.07;;
9906;SDS011;4992;51.628;6.664;2023-06-26T04:02:44;9.18;;;8.38;;
9906;SDS011;4992;51.628;6.664;2023-06-26T04:05:10;10.32;;;9.18;;
9906;SDS011;4992;51.628;6.664;2023-06-26T04:07:37;9.45;;;8.55;;
9906;SDS011;4992;51.628;6.664;2023-06-26T04:10:03;8.57;;;7.78;;
9906;SDS011;4992;51.628;6.664;2023-06-26T04:12:29;8.80;;;7.90;;
9906;SDS011;4992;51.628;6.664;2023-06-26T04:14:55;8.68;;;7.68;;
9906;SDS011;4992;51.628;6.664;2023-06-26T04:17:21;8.95;;;7.65;;
9906;SDS011;4992;51.628;6.664;2023-06-26T04:19:47;8.02;;;7.25;;
9906;SDS011;4992;51.628;6.664;2023-06-26T04:22:13;9.65;;;7.15;;
9906;SDS011;4992;51.628;6.664;2023-06-26T04:24:39;8.80;;;7.82;;
9906;SDS011;4992;51.628;6.664;2023-06-26T04:27:05;7.38;;;6.68;;
9906;SDS011;4992;51.628;6.664;2023-06-26T04:29:31;7.10;;;6.40;;
9906;SDS011;4992;51.628;6.664;2023-06-26T04:31:57;9.43;;;7.13;;
9906;SDS011;4992;51.628;6.664;2023-06-26T04:34:26;6.90;;;6.07;;
9906;SDS011;4992;51.628;6.664;2023-06-26T04:36:53;6.80;;;5.85;;
9906;SDS011;4992;51.628;6.664;2023-06-26T04:39:19;6.53;;;5.65;;
9906;SDS011;4992;51.628;6.664;2023-06-26T04:41:45;6.40;;;5.70;;
9906;SDS011;4992;51.628;6.664;2023-06-26T04:44:11;8.52;;;6.28;;
9906;SDS011;4992;51.628;6.664;2023-06-26T04:46:38;6.25;;;5.65;;
9906;SDS011;4992;51.628;6.664;2023-06-26T04:49:06;7.30;;;5.45;;
9906;SDS011;4992;51.628;6.664;2023-06-26T04:51:32;9.75;;;5.70;;
9906;SDS011;4992;51.628;6.664;2023-06-26T04:53:58;6.97;;;4.93;;
9906;SDS011;4992;51.628;6.664;2023-06-26T04:56:24;8.07;;;5.10;;
9906;SDS011;4992;51.628;6.664;2023-06-26T04:58:50;8.77;;;4.95;;
9906;SDS011;4992;51.628;6.664;2023-06-26T05:01:16;6.75;;;4.80;;
9906;SDS011;4992;51.628;6.664;2023-06-26T05:03:42;5.60;;;5.05;;
9906;SDS011;4992;51.628;6.664;2023-06-26T05:06:08;6.07;;;4.97;;
9906;SDS011;4992;51.628;6.664;2023-06-26T05:08:34;7.22;;;5.22;;
9906;SDS011;4992;51.628;6.664;2023-06-26T05:11:00;6.30;;;5.00;;
9906;SDS011;4992;51.628;6.664;2023-06-26T05:13:26;7.65;;;5.38;;
9906;SDS011;4992;51.628;6.664;2023-06-26T05:15:52;6.57;;;5.15;;
9906;SDS011;4992;51.628;6.664;2023-06-26T05:18:18;9.30;;;4.82;;
9906;SDS011;4992;51.628;6.664;2023-06-26T05:20:45;7.57;;;4.90;;
9906;SDS011;4992;51.628;6.664;2023-06-26T05:23:11;8.15;;;5.20;;
9906;SDS011;4992;51.628;6.664;2023-06-26T05:25:37;9.05;;;5.25;;
9906;SDS011;4992;51.628;6.664;2023-06-26T05:28:04;5.68;;;4.75;;
9906;SDS011;4992;51.628;6.664;2023-06-26T05:30:30;9.18;;;4.47;;
9906;SDS011;4992;51.628;6.664;2023-06-26T05:32:59;7.65;;;4.60;;
9906;SDS011;4992;51.628;6.664;2023-06-26T05:35:25;10.02;;;4.75;;
9906;SDS011;4992;51.628;6.664;2023-06-26T05:37:52;7.45;;;4.80;;
9906;SDS011;4992;51.628;6.664;2023-06-26T05:40:20;12.77;;;4.85;;
9906;SDS011;4992;51.628;6.664;2023-06-26T05:42:46;9.05;;;4.72;;
9906;SDS011;4992;51.628;6.664;2023-06-26T05:45:12;7.22;;;4.55;;
9906;SDS011;4992;51.628;6.664;2023-06-26T05:47:38;9.10;;;4.70;;
9906;SDS011;4992;51.628;6.664;2023-06-26T05:50:04;8.00;;;5.07;;
9906;SDS011;4992;51.628;6.664;2023-06-26T05:52:30;8.55;;;5.40;;
9906;SDS011;4992;51.628;6.664;2023-06-26T05:54:56;6.88;;;4.57;;
9906;SDS011;4992;51.628;6.664;2023-06-26T05:57:28;8.15;;;4.35;;
9906;SDS011;4992;51.628;6.664;2023-06-26T05:59:55;7.22;;;4.53;;
9906;SDS011;4992;51.628;6.664;2023-06-26T06:02:21;6.75;;;4.60;;
9906;SDS011;4992;51.628;6.664;2023-06-26T06:04:47;8.82;;;4.88;;
9906;SDS011;4992;51.628;6.664;2023-06-26T06:07:13;13.02;;;5.13;;
9906;SDS011;4992;51.628;6.664;2023-06-26T06:09:39;11.82;;;5.15;;
9906;SDS011;4992;51.628;6.664;2023-06-26T06:12:06;13.25;;;5.22;;
9906;SDS011;4992;51.628;6.664;2023-06-26T06:14:32;9.80;;;5.20;;
9906;SDS011;4992;51.628;6.664;2023-06-26T06:16:58;10.52;;;4.63;;
9906;SDS011;4992;51.628;6.664;2023-06-26T06:19:24;9.73;;;4.90;;
9906;SDS011;4992;51.628;6.664;2023-06-26T06:21:50;10.65;;;5.07;;
9906;SDS011;4992;51.628;6.664;2023-06-26T06:24:16;14.30;;;5.55;;
9906;SDS011;4992;51.628;6.664;2023-06-26T06:26:42;9.98;;;5.38;;
9906;SDS011;4992;51.628;6.664;2023-06-26T06:29:08;8.90;;;4.95;;
9906;SDS011;4992;51.628;6.664;2023-06-26T06:31:35;10.13;;;5.30;;
9906;SDS011;4992;51.628;6.664;2023-06-26T06:34:01;11.07;;;5.13;;
9906;SDS011;4992;51.628;6.664;2023-06-26T06:36:27;8.07;;;4.60;;
9906;SDS011;4992;51.628;6.664;2023-06-26T06:38:53;12.13;;;5.43;;
9906;SDS011;4992;51.628;6.664;2023-06-26T06:41:19;10.50;;;5.05;;
9906;SDS011;4992;51.628;6.664;2023-06-26T06:43:45;10.38;;;5.00;;
9906;SDS011;4992;51.628;6.664;2023-06-26T06:46:11;10.18;;;4.95;;
9906;SDS011;4992;51.628;6.664;2023-06-26T06:48:37;10.45;;;4.93;;
9906;SDS011;4992;51.628;6.664;2023-06-26T06:51:03;14.25;;;5.47;;
9906;SDS011;4992;51.628;6.664;2023-06-26T06:53:31;10.30;;;5.40;;
9906;SDS011;4992;51.628;6.664;2023-06-26T06:55:57;8.77;;;5.10;;
9906;SDS011;4992;51.628;6.664;2023-06-26T06:58:23;9.23;;;4.90;;
9906;SDS011;4992;51.628;6.664;2023-06-26T07:00:49;9.02;;;4.85;;
9906;SDS011;4992;51.628;6.664;2023-06-26T07:03:16;10.02;;;5.15;;
9906;SDS011;4992;51.628;6.664;2023-06-26T07:05:42;9.75;;;5.45;;
9906;SDS011;4992;51.628;6.664;2023-06-26T07:08:09;11.35;;;6.03;;
9906;SDS011;4992;51.628;6.664;2023-06-26T07:10:35;10.07;;;5.50;;
9906;SDS011;4992;51.628;6.664;2023-06-26T07:13:01;10.05;;;5.50;;
9906;SDS011;4992;51.628;6.664;2023-06-26T07:15:27;14.27;;;5.20;;
9906;SDS011;4992;51.628;6.664;2023-06-26T07:17:53;17.33;;;6.15;;
9906;SDS011;4992;51.628;6.664;2023-06-26T07:20:19;12.25;;;5.55;;
9906;SDS011;4992;51.628;6.664;2023-06-26T07:22:45;10.00;;;5.47;;
9906;SDS011;4992;51.628;6.664;2023-06-26T07:25:12;10.30;;;6.13;;
9906;SDS011;4992;51.628;6.664;2023-06-26T07:27:38;9.80;;;5.03;;
9906;SDS011;4992;51.628;6.664;2023-06-26T07:30:04;8.93;;;5.18;;
9906;SDS011;4992;51.628;6.664;2023-06-26T07:32:30;8.73;;;4.90;;
9906;SDS011;4992;51.628;6.664;2023-06-26T07:34:56;10.52;;;4.93;;
9906;SDS011;4992;51.628;6.664;2023-06-26T07:37:22;7.57;;;4.50;;
9906;SDS011;4992;51.628;6.664;2023-06-26T07:39:51;7.95;;;4.88;;
9906;SDS011;4992;51.628;6.664;2023-06-26T07:42:17;13.30;;;5.00;;
9906;SDS011;4992;51.628;6.664;2023-06-26T07:44:43;10.27;;;4.72;;
9906;SDS011;4992;51.628;6.664;2023-06-26T07:47:09;7.83;;;3.60;;
9906;SDS011;4992;51.628;6.664;2023-06-26T07:49:35;6.88;;;3.60;;
9906;SDS011;4992;51.628;6.664;2023-06-26T07:52:01;13.18;;;4.57;;
9906;SDS011;4992;51.628;6.664;2023-06-26T07:54:27;7.75;;;3.80;;
9906;SDS011;4992;51.628;6.664;2023-06-26T07:56:54;9.20;;;3.72;;
9906;SDS011;4992;51.628;6.664;2023-06-26T07:59:20;12.80;;;3.90;;
9906;SDS011;4992;51.628;6.664;2023-06-26T08:01:50;10.57;;;3.85;;
9906;SDS011;4992;51.628;6.664;2023-06-26T08:04:17;10.57;;;4.00;;
9906;SDS011;4992;51.628;6.664;2023-06-26T08:06:43;11.77;;;4.30;;
9906;SDS011;4992;51.628;6.664;2023-06-26T08:09:09;6.90;;;3.67;;
9906;SDS011;4992;51.628;6.664;2023-06-26T08:11:37;7.43;;;3.47;;
9906;SDS011;4992;51.628;6.664;2023-06-26T08:14:03;9.45;;;3.78;;
9906;SDS011;4992;51.628;6.664;2023-06-26T08:16:29;6.03;;;3.35;;
9906;SDS011;4992;51.628;6.664;2023-06-26T08:18:55;10.05;;;3.63;;
9906;SDS011;4992;51.628;6.664;2023-06-26T08:21:21;6.72;;;3.63;;
9906;SDS011;4992;51.628;6.664;2023-06-26T08:23:47;11.60;;;3.45;;
9906;SDS011;4992;51.628;6.664;2023-06-26T08:26:13;8.05;;;3.72;;
9906;SDS011;4992;51.628;6.664;2023-06-26T08:28:39;7.03;;;2.95;;
9906;SDS011;4992;51.628;6.664;2023-06-26T08:31:05;7.93;;;2.90;;
9906;SDS011;4992;51.628;6.664;2023-06-26T08:33:31;10.13;;;2.92;;
9906;SDS011;4992;51.628;6.664;2023-06-26T08:35:57;7.30;;;3.65;;
9906;SDS011;4992;51.628;6.664;2023-06-26T08:38:23;8.35;;;2.95;;
9906;SDS011;4992;51.628;6.664;2023-06-26T08:40:49;9.35;;;3.78;;
9906;SDS011;4992;51.628;6.664;2023-06-26T08:43:15;8.13;;;3.97;;
9906;SDS011;4992;51.628;6.664;2023-06-26T08:45:41;7.05;;;3.15;;
9906;SDS011;4992;51.628;6.664;2023-06-26T08:48:07;4.38;;;3.10;;
9906;SDS011;4992;51.628;6.664;2023-06-26T08:50:34;8.43;;;3.03;;
9906;SDS011;4992;51.628;6.664;2023-06-26T08:55:44;7.30;;;3.45;;
9906;SDS011;4992;51.628;6.664;2023-06-26T08:58:11;4.13;;;2.35;;
9906;SDS011;4992;51.628;6.664;2023-06-26T09:00:37;4.45;;;2.80;;
9906;SDS011;4992;51.628;6.664;2023-06-26T09:03:04;4.15;;;2.83;;
9906;SDS011;4992;51.628;6.664;2023-06-26T09:05:30;5.65;;;2.53;;
9906;SDS011;4992;51.628;6.664;2023-06-26T09:07:57;3.85;;;2.53;;
9906;SDS011;4992;51.628;6.664;2023-06-26T09:10:23;6.47;;;2.60;;
9906;SDS011;4992;51.628;6.664;2023-06-26T09:12:49;5.63;;;2.50;;
9906;SDS011;4992;51.628;6.664;2023-06-26T09:15:16;4.68;;;2.47;;
9906;SDS011;4992;51.628;6.664;2023-06-26T09:17:44;5.60;;;2.10;;
9906;SDS011;4992;51.628;6.664;2023-06-26T09:20:10;4.53;;;2.10;;
9906;SDS011;4992;51.628;6.664;2023-06-26T09:22:40;3.13;;;2.35;;
9906;SDS011;4992;51.628;6.664;2023-06-26T09:25:07;3.70;;;2.35;;
9906;SDS011;4992;51.628;6.664;2023-06-26T09:27:36;5.35;;;2.80;;
9906;SDS011;4992;51.628;6.664;2023-06-26T09:30:05;3.60;;;2.17;;
9906;SDS011;4992;51.628;6.664;2023-06-26T09:32:33;3.92;;;2.60;;
9906;SDS011;4992;51.628;6.664;2023-06-26T09:35:01;5.53;;;2.40;;
9906;SDS011;4992;51.628;6.664;2023-06-26T09:37:27;3.70;;;1.90;;
9906;SDS011;4992;51.628;6.664;2023-06-26T09:39:53;5.18;;;2.13;;
9906;SDS011;4992;51.628;6.664;2023-06-26T09:42:19;5.03;;;2.92;;
9906;SDS011;4992;51.628;6.664;2023-06-26T09:44:45;2.78;;;2.00;;
9906;SDS011;4992;51.628;6.664;2023-06-26T09:47:11;5.38;;;2.45;;
9906;SDS011;4992;51.628;6.664;2023-06-26T09:49:40;4.03;;;2.80;;
9906;SDS011;4992;51.628;6.664;2023-06-26T09:52:07;5.13;;;2.10;;
9906;SDS011;4992;51.628;6.664;2023-06-26T09:54:33;7.18;;;2.58;;
9906;SDS011;4992;51.628;6.664;2023-06-26T09:57:11;3.90;;;2.08;;
9906;SDS011;4992;51.628;6.664;2023-06-26T09:59:37;3.13;;;2.15;;
9906;SDS011;4992;51.628;6.664;2023-06-26T10:02:04;4.78;;;2.40;;
9906;SDS011;4992;51.628;6.664;2023-06-26T10:04:30;6.43;;;2.50;;
9906;SDS011;4992;51.628;6.664;2023-06-26T10:06:56;4.05;;;2.30;;
9906;SDS011;4992;51.628;6.664;2023-06-26T10:09:23;3.67;;;2.85;;
9906;SDS011;4992;51.628;6.664;2023-06-26T10:11:54;8.02;;;2.50;;
9906;SDS011;4992;51.628;6.664;2023-06-26T10:14:21;5.82;;;1.88;;
9906;SDS011;4992;51.628;6.664;2023-06-26T10:16:48;3.72;;;2.00;;
9906;SDS011;4992;51.628;6.664;2023-06-26T10:19:15;2.67;;;1.98;;
9906;SDS011;4992;51.628;6.664;2023-06-26T10:21:44;4.95;;;2.20;;
9906;SDS011;4992;51.628;6.664;2023-06-26T10:24:10;3.10;;;1.58;;
9906;SDS011;4992;51.628;6.664;2023-06-26T10:26:38;3.92;;;1.58;;
9906;SDS011;4992;51.628;6.664;2023-06-26T10:29:08;1.80;;;1.00;;
9906;SDS011;4992;51.628;6.664;2023-06-26T10:31:35;6.18;;;1.70;;
9906;SDS011;4992;51.628;6.664;2023-06-26T10:34:01;3.40;;;1.48;;
9906;SDS011;4992;51.628;6.664;2023-06-26T10:36:29;4.13;;;1.58;;
9906;SDS011;4992;51.628;6.664;2023-06-26T10:38:56;2.58;;;1.30;;
9906;SDS011;4992;51.628;6.664;2023-06-26T10:41:23;4.32;;;1.27;;
9906;SDS011;4992;51.628;6.664;2023-06-26T10:46:24;3.10;;;1.48;;
9906;SDS011;4992;51.628;6.664;2023-06-26T10:48:57;4.40;;;1.40;;
9906;SDS011;4992;51.628;6.664;2023-06-26T10:51:27;3.40;;;1.00;;
9906;SDS011;4992;51.628;6.664;2023-06-26T10:53:56;3.38;;;1.38;;
9906;SDS011;4992;51.628;6.664;2023-06-26T10:56:40;4.85;;;1.17;;
9906;SDS011;4992;51.628;6.664;2023-06-26T10:59:13;2.30;;;1.00;;
9906;SDS011;4992;51.628;6.664;2023-06-26T11:01:41;3.67;;;1.20;;
9906;SDS011;4992;51.628;6.664;2023-06-26T11:04:07;2.28;;;0.90;;
9906;SDS011;4992;51.628;6.664;2023-06-26T11:06:35;6.38;;;1.10;;
9906;SDS011;4992;51.628;6.664;2023-06-26T11:14:14;3.55;;;0.93;;
9906;SDS011;4992;51.628;6.664;2023-06-26T11:16:42;2.08;;;1.00;;
9906;SDS011;4992;51.628;6.664;2023-06-26T11:19:09;3.50;;;0.75;;
9906;SDS011;4992;51.628;6.664;2023-06-26T11:21:36;2.67;;;0.65;;
9906;SDS011;4992;51.628;6.664;2023-06-26T11:24:04;2.08;;;0.95;;
9906;SDS011;4992;51.628;6.664;2023-06-26T11:26:30;2.55;;;0.82;;
9906;SDS011;4992;51.628;6.664;2023-06-26T11:28:56;3.17;;;1.00;;
9906;SDS011;4992;51.628;6.664;2023-06-26T11:31:28;3.40;;;0.75;;
9906;SDS011;4992;51.628;6.664;2023-06-26T11:34:07;3.30;;;0.70;;
9906;SDS011;4992;51.628;6.664;2023-06-26T11:36:35;2.83;;;0.77;;
9906;SDS011;4992;51.628;6.664;2023-06-26T11:39:02;1.08;;;0.50;;
9906;SDS011;4992;51.628;6.664;2023-06-26T11:41:29;1.52;;;0.52;;
9906;SDS011;4992;51.628;6.664;2023-06-26T11:43:55;2.75;;;0.40;;
9906;SDS011;4992;51.628;6.664;2023-06-26T11:46:22;5.47;;;0.70;;
9906;SDS011;4992;51.628;6.664;2023-06-26T11:48:48;1.42;;;0.88;;
9906;SDS011;4992;51.628;6.664;2023-06-26T11:51:15;2.47;;;0.80;;
9906;SDS011;4992;51.628;6.664;2023-06-26T11:53:41;2.75;;;0.75;;
9906;SDS011;4992;51.628;6.664;2023-06-26T11:56:10;1.50;;;0.50;;
9906;SDS011;4992;51.628;6.664;2023-06-26T11:58:54;7.80;;;0.77;;
9906;SDS011;4992;51.628;6.664;2023-06-26T12:01:20;4.55;;;0.85;;
9906;SDS011;4992;51.628;6.664;2023-06-26T12:03:47;1.58;;;0.55;;
9906;SDS011;4992;51.628;6.664;2023-06-26T12:06:14;3.38;;;0.75;;
9906;SDS011;4992;51.628;6.664;2023-06-26T12:08:40;2.05;;;0.77;;
9906;SDS011;4992;51.628;6.664;2023-06-26T12:11:06;2.45;;;0.75;;
9906;SDS011;4992;51.628;6.664;2023-06-26T12:13:32;2.58;;;1.00;;
9906;SDS011;4992;51.628;6.664;2023-06-26T12:15:58;2.53;;;0.93;;
9906;SDS011;4992;51.628;6.664;2023-06-26T12:18:24;1.77;;;0.50;;
9906;SDS011;4992;51.628;6.664;2023-06-26T12:20:51;1.65;;;0.40;;
9906;SDS011;4992;51.628;6.664;2023-06-26T12:23:17;1.73;;;0.40;;
9906;SDS011;4992;51.628;6.664;2023-06-26T12:25:43;4.53;;;0.70;;
9906;SDS011;4992;51.628;6.664;2023-06-26T12:28:15;1.50;;;0.60;;
9906;SDS011;4992;51.628;6.664;2023-06-26T12:30:45;1.55;;;0.80;;
9906;SDS011;4992;51.628;6.664;2023-06-26T12:33:14;5.95;;;0.85;;
9906;SDS011;4992;51.628;6.664;2023-06-26T12:35:41;1.27;;;0.60;;
9906;SDS011;4992;51.628;6.664;2023-06-26T12:38:08;2.42;;;0.50;;
9906;SDS011;4992;51.628;6.664;2023-06-26T12:40:46;1.88;;;0.60;;
9906;SDS011;4992;51.628;6.664;2023-06-26T12:43:22;3.08;;;0.60;;
9906;SDS011;4992;51.628;6.664;2023-06-26T12:45:48;2.55;;;0.50;;
9906;SDS011;4992;51.628;6.664;2023-06-26T12:48:14;2.17;;;0.50;;
9906;SDS011;4992;51.628;6.664;2023-06-26T12:50:44;1.40;;;0.52;;
9906;SDS011;4992;51.628;6.664;2023-06-26T12:53:10;2.92;;;0.50;;
9906;SDS011;4992;51.628;6.664;2023-06-26T12:55:36;2.17;;;0.60;;
9906;SDS011;4992;51.628;6.664;2023-06-26T12:58:02;2.33;;;0.60;;
9906;SDS011;4992;51.628;6.664;2023-06-26T13:00:28;1.58;;;0.65;;
9906;SDS011;4992;51.628;6.664;2023-06-26T13:02:56;2.05;;;0.65;;
9906;SDS011;4992;51.628;6.664;2023-06-26T13:05:23;1.73;;;0.50;;
9906;SDS011;4992;51.628;6.664;2023-06-26T13:07:49;4.03;;;0.60;;
9906;SDS011;4992;51.628;6.664;2023-06-26T13:10:15;2.08;;;0.80;;
9906;SDS011;4992;51.628;6.664;2023-06-26T13:12:42;1.67;;;0.70;;
9906;SDS011;4992;51.628;6.664;2023-06-26T13:15:08;1.77;;;0.70;;
9906;SDS011;4992;51.628;6.664;2023-06-26T13:17:34;1.02;;;0.70;;
9906;SDS011;4992;51.628;6.664;2023-06-26T13:20:00;3.70;;;0.50;;
9906;SDS011;4992;51.628;6.664;2023-06-26T13:22:26;1.33;;;0.60;;
9906;SDS011;4992;51.628;6.664;2023-06-26T13:24:52;2.00;;;1.08;;
9906;SDS011;4992;51.628;6.664;2023-06-26T13:27:17;0.98;;;0.60;;
9906;SDS011;4992;51.628;6.664;2023-06-26T13:29:43;2.13;;;0.70;;
9906;SDS011;4992;51.628;6.664;2023-06-26T13:32:09;2.38;;;0.65;;
9906;SDS011;4992;51.628;6.664;2023-06-26T13:34:35;2.95;;;0.93;;
9906;SDS011;4992;51.628;6.664;2023-06-26T13:37:01;4.05;;;1.13;;
9906;SDS011;4992;51.628;6.664;2023-06-26T13:39:27;2.58;;;0.70;;
9906;SDS011;4992;51.628;6.664;2023-06-26T13:41:53;1.52;;;0.50;;
9906;SDS011;4992;51.628;6.664;2023-06-26T13:44:19;0.93;;;0.45;;
9906;SDS011;4992;51.628;6.664;2023-06-26T13:46:45;3.47;;;0.88;;
9906;SDS011;4992;51.628;6.664;2023-06-26T13:49:11;3.78;;;0.65;;
9906;SDS011;4992;51.628;6.664;2023-06-26T13:51:37;3.92;;;0.88;;
9906;SDS011;4992;51.628;6.664;2023-06-26T13:54:05;4.15;;;0.80;;
9906;SDS011;4992;51.628;6.664;2023-06-26T13:56:33;1.10;;;0.50;;
9906;SDS011;4992;51.628;6.664;2023-06-26T13:59:00;1.40;;;0.68;;
9906;SDS011;4992;51.628;6.664;2023-06-26T14:01:27;1.70;;;0.75;;
9906;SDS011;4992;51.628;6.664;2023-06-26T14:03:54;1.23;;;0.75;;
9906;SDS011;4992;51.628;6.664;2023-06-26T14:06:20;4.07;;;1.17;;
9906;SDS011;4992;51.628;6.664;2023-06-26T14:08:46;1.70;;;0.82;;
9906;SDS011;4992;51.628;6.664;2023-06-26T14:11:12;2.90;;;1.10;;
9906;SDS011;4992;51.628;6.664;2023-06-26T14:13:38;3.55;;;1.00;;
9906;SDS011;4992;51.628;6.664;2023-06-26T14:16:04;1.75;;;0.60;;
9906;SDS011;4992;51.628;6.664;2023-06-26T14:18:30;4.10;;;1.27;;
9906;SDS011;4992;51.628;6.664;2023-06-26T14:20:56;2.75;;;0.82;;
9906;SDS011;4992;51.628;6.664;2023-06-26T14:23:22;1.45;;;0.90;;
9906;SDS011;4992;51.628;6.664;2023-06-26T14:25:48;4.53;;;0.82;;
9906;SDS011;4992;51.628;6.664;2023-06-26T14:28:14;3.55;;;0.80;;
9906;SDS011;4992;51.628;6.664;2023-06-26T14:30:40;2.95;;;1.13;;
9906;SDS011;4992;51.628;6.664;2023-06-26T14:33:06;1.48;;;1.00;;
9906;SDS011;4992;51.628;6.664;2023-06-26T14:35:32;2.95;;;0.90;;
9906;SDS011;4992;51.628;6.664;2023-06-26T14:37:58;2.17;;;0.80;;
9906;SDS011;4992;51.628;6.664;2023-06-26T14:40:24;5.35;;;0.90;;
9906;SDS011;4992;51.628;6.664;2023-06-26T14:42:50;2.10;;;0.90;;
9906;SDS011;4992;51.628;6.664;2023-06-26T14:45:18;2.08;;;0.88;;
9906;SDS011;4992;51.628;6.664;2023-06-26T14:47:44;7.53;;;1.30;;
9906;SDS011;4992;51.628;6.664;2023-06-26T14:50:10;1.38;;;0.70;;
9906;SDS011;4992;51.628;6.664;2023-06-26T14:52:36;2.25;;;0.98;;
9906;SDS011;4992;51.628;6.664;2023-06-26T14:55:02;0.85;;;0.60;;
9906;SDS011;4992;51.628;6.664;2023-06-26T14:57:28;4.90;;;0.60;;
9906;SDS011;4992;51.628;6.664;2023-06-26T14:59:55;2.42;;;0.77;;
9906;SDS011;4992;51.628;6.664;2023-06-26T15:02:21;2.40;;;0.63;;
9906;SDS011;4992;51.628;6.664;2023-06-26T15:04:47;2.15;;;0.40;;
9906;SDS011;4992;51.628;6.664;2023-06-26T15:07:13;2.50;;;0.60;;
9906;SDS011;4992;51.628;6.664;2023-06-26T15:09:39;2.05;;;0.70;;
9906;SDS011;4992;51.628;6.664;2023-06-26T15:12:05;4.22;;;0.80;;
9906;SDS011;4992;51.628;6.664;2023-06-26T15:14:31;2.40;;;0.70;;
9906;SDS011;4992;51.628;6.664;2023-06-26T15:16:57;3.63;;;0.47;;
9906;SDS011;4992;51.628;6.664;2023-06-26T15:19:23;2.08;;;0.60;;
9906;SDS011;4992;51.628;6.664;2023-06-26T15:21:49;1.88;;;0.60;;
9906;SDS011;4992;51.628;6.664;2023-06-26T15:24:14;2.20;;;0.80;;
9906;SDS011;4992;51.628;6.664;2023-06-26T15:26:40;1.23;;;0.60;;